CDT,Max TemperatureF,Mean TemperatureF,Min TemperatureF,Max Dew PointF,MeanDew PointF,Min DewpointF,Max Humidity, Mean Humidity, Min Humidity, Max Sea Level PressureIn, Mean Sea Level PressureIn, Min Sea Level PressureIn, Max VisibilityMiles, Mean VisibilityMiles, Min VisibilityMiles, Max Wind SpeedMPH, Mean Wind SpeedMPH, Max Gust SpeedMPH,PrecipitationIn, CloudCover, Events, WindDirDegrees
2013-5-1,77,69,61,66,62,58,100,77,64,30.06,30.02,29.94,10,10,8,13,6,,0.00,5,Thunderstorm,131
2013-5-2,71,61,50,65,61,49,100,93,68,30.13,30.08,30.05,10,8,2,20,6,85,0.79,8,Rain,11
2013-5-3,48,42,37,48,40,35,100,92,76,30.07,30.00,29.96,10,8,2,20,15,26,1.72,7,Rain,304
2013-5-4,50,43,36,44,39,35,97,84,63,29.97,29.94,29.92,10,10,10,14,6,,0.06,7,Rain,227
2013-5-5,57,50,43,52,46,40,100,85,58,30.00,29.96,29.93,10,10,10,18,11,33,0.07,7,Rain,319
2013-5-6,68,60,53,56,54,52,100,82,61,29.99,29.94,29.90,10,10,8,17,10,,0.08,8,Rain,323
2013-5-7,74,63,52,61,57,52,97,76,52,30.05,30.01,29.98,10,10,10,10,6,16,0.00,1,,353
2013-5-8,81,68,56,63,59,55,100,73,41,30.09,30.03,30.00,10,10,5,10,3,,0.00,0,,172
2013-5-9,79,70,61,66,61,57,93,73,46,30.06,29.99,29.94,10,10,10,21,9,25,0.00,2,Rain-Thunderstorm,193
2013-5-10,77,70,62,66,63,55,100,84,56,30.01,29.93,29.88,10,9,2,25,7,31,0.62,6,Rain-Thunderstorm,279
2013-5-11,74,64,55,56,52,38,93,67,42,30.16,30.05,30.00,10,10,10,13,9,,0.00,3,,339
2013-5-12,68,56,45,48,39,31,83,53,29,30.28,30.21,30.16,10,10,10,12,7,17,0.00,0,,346
2013-5-13,77,64,50,55,50,44,89,63,39,30.27,30.18,30.09,10,10,10,13,5,16,0.00,2,,175
2013-5-14,90,74,59,62,57,53,83,59,31,30.09,30.04,29.99,10,10,4,20,12,23,0.00,0,,205
2013-5-15,83,71,59,63,58,53,83,61,44,30.08,30.01,29.94,10,10,10,23,11,,0.00,0,,207
2013-5-16,72,68,64,67,63,59,96,83,71,29.99,29.93,29.89,10,10,10,12,7,,0.12,7,Rain,152
2013-5-17,79,72,64,70,67,64,100,88,65,29.96,29.91,29.86,10,8,2,13,6,,0.49,6,Rain-Thunderstorm,114
2013-5-18,82,74,65,75,71,66,100,89,70,30.01,29.94,29.89,10,8,5,15,5,,0.00,6,Rain,133
2013-5-19,86,79,72,74,71,68,100,78,55,29.94,29.87,29.80,10,9,6,20,11,,0.00,1,,178
2013-5-20,86,79,72,72,70,69,93,74,56,29.91,29.86,29.76,10,10,10,23,15,29,0.00,3,,185
2013-5-21,78,70,62,70,65,63,100,95,73,29.98,29.88,29.76,10,8,0,34,16,58,2.23,6,Fog-Rain-Thunderstorm,243
2013-5-22,79,71,63,66,63,59,100,79,49,29.91,29.86,29.81,10,10,10,17,9,21,0.00,4,,225
2013-5-23,81,71,61,65,61,58,93,70,49,30.17,30.04,29.94,10,10,10,16,6,17,0.00,1,,322
2013-5-24,72,64,56,58,51,46,87,67,41,30.35,30.27,30.19,10,10,10,18,12,,0.00,0,,51
2013-5-25,77,66,54,61,54,51,97,68,43,30.30,30.24,30.15,10,10,3,12,6,,0.00,0,Rain,140
2013-5-26,84,72,61,66,62,58,96,64,48,30.19,30.11,30.06,10,5,0,14,6,,0.00,1,Rain,152
2013-5-27,86,76,65,68,67,65,100,74,49,30.07,30.00,29.92,10,10,8,23,10,28,0.00,2,,182
2013-5-28,86,78,70,68,66,62,87,67,46,30.01,29.95,29.90,10,10,10,21,14,28,0.00,2,,185
2013-5-29,88,77,66,69,66,62,87,68,44,30.01,29.95,29.89,10,10,10,28,11,37,0.00,2,Rain-Thunderstorm,173
2013-5-30,86,78,71,74,70,67,100,86,55,29.97,29.91,29.86,10,9,1,34,17,43,1.04,6,Rain-Thunderstorm,175
2013-5-31,86,76,66,75,71,66,100,88,69,29.96,29.89,29.79,10,9,2,26,18,34,1.72,6,Rain-Thunderstorm,164